createdAt,value
2023-02-06T00:01:02.473Z,59.32
2023-02-06T00:03:30.302Z,59.18
2023-02-06T00:05:59.735Z,59.64
2023-02-06T00:08:28.297Z,59.94
2023-02-06T00:10:56.356Z,59.70
2023-02-06T00:13:24.085Z,59.67
2023-02-06T00:15:51.732Z,59.53
2023-02-06T00:18:19.856Z,59.66
2023-02-06T00:20:47.849Z,59.40
2023-02-06T00:23:16.126Z,59.57
2023-02-06T00:25:44.178Z,59.38
2023-02-06T00:28:12.046Z,59.62
2023-02-06T00:30:39.971Z,60.05
2023-02-06T00:33:08.126Z,60.12
2023-02-06T00:35:36.055Z,60.24
2023-02-06T00:38:03.908Z,60.40
2023-02-06T00:40:31.962Z,60.45
2023-02-06T00:43:00.745Z,60.25
2023-02-06T00:45:28.650Z,60.29
2023-02-06T00:47:56.575Z,60.90
2023-02-06T00:50:24.384Z,60.30
2023-02-06T00:52:52.066Z,61.09
2023-02-06T00:55:20.045Z,60.63
2023-02-06T00:57:47.771Z,60.09
2023-02-06T01:00:16.947Z,60.24
2023-02-06T01:02:45.016Z,59.69
2023-02-06T01:05:12.843Z,59.55
2023-02-06T01:07:40.677Z,59.41
2023-02-06T01:10:11.560Z,59.66
2023-02-06T01:12:41.228Z,60.01
2023-02-06T01:15:11.230Z,60.03
2023-02-06T01:17:39.725Z,59.79
2023-02-06T01:20:09.198Z,60.18
2023-02-06T01:22:37.739Z,59.15
2023-02-06T01:25:06.734Z,58.90
2023-02-06T01:27:38.211Z,59.12
2023-02-06T01:30:07.492Z,59.04
2023-02-06T01:32:38.702Z,59.39
2023-02-06T01:35:08.006Z,59.82
2023-02-06T01:37:36.915Z,59.52
2023-02-06T01:40:06.422Z,59.81
2023-02-06T01:42:37.234Z,59.61
2023-02-06T01:45:23.479Z,60.61
2023-02-06T01:47:55.550Z,59.87
2023-02-06T01:50:24.218Z,60.33
2023-02-06T01:52:52.446Z,61.31
2023-02-06T01:55:20.146Z,61.00
2023-02-06T01:57:47.728Z,61.16
2023-02-06T02:00:15.955Z,61.00
2023-02-06T02:02:47.105Z,60.69
2023-02-06T02:05:16.825Z,60.89
2023-02-06T02:08:00.882Z,61.08
2023-02-06T02:10:31.019Z,60.89
2023-02-06T02:12:59.068Z,61.35
2023-02-06T02:15:55.116Z,61.50
2023-02-06T02:19:04.135Z,61.92
2023-02-06T02:22:34.578Z,62.24
2023-02-06T02:25:33.822Z,62.39
2023-02-06T02:28:31.937Z,61.56
2023-02-06T02:31:09.183Z,61.54
2023-02-06T02:33:36.748Z,61.00
2023-02-06T02:36:23.574Z,61.20
2023-02-06T02:38:54.358Z,60.85
2023-02-06T02:41:29.524Z,61.82
2023-02-06T02:44:21.535Z,61.28
2023-02-06T02:46:49.937Z,61.15
2023-02-06T02:49:21.711Z,60.86
2023-02-06T02:51:50.469Z,61.56
2023-02-06T02:54:18.647Z,61.88
2023-02-06T02:56:46.575Z,61.90
2023-02-06T02:59:32.049Z,61.20
2023-02-06T03:02:11.771Z,61.41
2023-02-06T03:04:48.400Z,61.79
2023-02-06T03:07:32.057Z,61.78
2023-02-06T03:10:48.083Z,61.48
2023-02-06T03:13:41.893Z,62.40
2023-02-06T03:16:21.563Z,62.48
2023-02-06T03:18:58.097Z,62.93
2023-02-06T03:21:27.490Z,62.44
2023-02-06T03:23:58.654Z,62.99
2023-02-06T03:26:29.176Z,62.89
2023-02-06T03:29:00.753Z,62.52
2023-02-06T03:31:36.522Z,62.49
2023-02-06T03:34:12.454Z,61.99
2023-02-06T03:36:40.740Z,61.75
2023-02-06T03:39:08.444Z,61.34
2023-02-06T03:41:37.597Z,61.23
2023-02-06T03:44:09.779Z,60.48
2023-02-06T03:46:38.662Z,60.35
2023-02-06T03:49:08.082Z,60.51
2023-02-06T03:51:43.319Z,60.97
2023-02-06T03:54:12.060Z,61.84
2023-02-06T03:56:54.226Z,61.69
2023-02-06T03:59:22.309Z,60.71
2023-02-06T04:01:56.095Z,60.65
2023-02-06T04:04:29.506Z,60.62
2023-02-06T04:07:22.566Z,60.85
2023-02-06T04:09:50.641Z,60.38
2023-02-06T04:12:18.475Z,60.63
2023-02-06T04:14:46.134Z,60.87
2023-02-06T04:17:18.752Z,61.02
2023-02-06T04:19:51.598Z,60.60
2023-02-06T04:22:19.839Z,60.46
2023-02-06T04:24:47.522Z,60.10
2023-02-06T04:27:15.676Z,59.96
2023-02-06T04:29:43.606Z,59.26
2023-02-06T04:32:11.319Z,60.72
2023-02-06T04:34:39.197Z,61.07
2023-02-06T04:37:07.438Z,60.94
2023-02-06T04:39:35.260Z,60.77
2023-02-06T04:42:02.981Z,61.03
2023-02-06T04:44:30.887Z,61.14
2023-02-06T04:46:58.533Z,61.24
2023-02-06T04:49:26.304Z,60.90
2023-02-06T04:51:54.201Z,61.22
2023-02-06T04:54:22.010Z,61.31
2023-02-06T04:56:50.211Z,61.49
2023-02-06T04:59:18.853Z,61.94
2023-02-06T05:01:46.558Z,61.42
2023-02-06T05:04:14.154Z,61.22
2023-02-06T05:06:42.046Z,61.00
2023-02-06T05:09:09.664Z,60.19
2023-02-06T05:11:37.347Z,61.48
2023-02-06T05:14:05.391Z,61.60
2023-02-06T05:16:33.053Z,61.07
2023-02-06T05:19:00.936Z,60.45
2023-02-06T05:21:29.122Z,60.29
2023-02-06T05:23:56.754Z,60.53
2023-02-06T05:26:24.396Z,59.73
2023-02-06T05:28:52.608Z,59.69
2023-02-06T05:31:20.546Z,59.99
2023-02-06T05:33:52.076Z,60.38
2023-02-06T05:36:21.175Z,60.46
2023-02-06T05:38:49.963Z,60.10
2023-02-06T05:41:18.374Z,60.05
2023-02-06T05:43:46.558Z,60.27
2023-02-06T05:46:14.203Z,60.35
2023-02-06T05:48:42.123Z,60.27
2023-02-06T05:51:10.043Z,59.97
2023-02-06T05:53:37.706Z,59.83
2023-02-06T05:56:05.669Z,59.88
2023-02-06T05:58:33.746Z,60.24
2023-02-06T06:01:01.638Z,60.15
2023-02-06T06:03:32.453Z,59.63
2023-02-06T06:06:01.129Z,59.74
2023-02-06T06:08:29.278Z,59.54
2023-02-06T06:10:56.986Z,59.53
2023-02-06T06:13:24.725Z,60.20
2023-02-06T06:15:52.897Z,60.24
2023-02-06T06:18:21.078Z,59.72
2023-02-06T06:20:55.914Z,59.58
2023-02-06T06:23:24.108Z,59.03
2023-02-06T06:25:51.986Z,59.30
2023-02-06T06:28:19.835Z,59.10
2023-02-06T06:30:48.719Z,58.97
2023-02-06T06:33:16.361Z,59.47
2023-02-06T06:35:44.072Z,59.69
2023-02-06T06:38:12.059Z,59.39
2023-02-06T06:40:40.973Z,59.48
2023-02-06T06:43:08.653Z,59.31
2023-02-06T06:45:37.146Z,59.17
2023-02-06T06:48:05.189Z,59.12
2023-02-06T06:50:32.879Z,59.19
2023-02-06T06:53:00.900Z,58.95
2023-02-06T06:55:28.711Z,58.51
2023-02-06T06:57:56.547Z,58.67
2023-02-06T07:00:24.910Z,58.99
2023-02-06T07:02:52.789Z,58.48
2023-02-06T07:05:20.463Z,58.24
2023-02-06T07:07:48.566Z,58.53
2023-02-06T07:10:16.780Z,58.19
2023-02-06T07:12:44.599Z,57.80
2023-02-06T07:15:12.569Z,58.05
2023-02-06T07:17:40.378Z,58.07
2023-02-06T07:20:10.354Z,57.47
2023-02-06T07:22:38.641Z,57.11
2023-02-06T07:25:06.524Z,57.47
2023-02-06T07:27:34.189Z,57.97
2023-02-06T07:30:04.976Z,58.00
2023-02-06T07:32:38.654Z,57.81
2023-02-06T07:35:07.314Z,58.11
2023-02-06T07:37:34.942Z,58.58
2023-02-06T07:40:03.241Z,58.49
2023-02-06T07:42:31.309Z,59.06
2023-02-06T07:45:00.060Z,59.60
2023-02-06T07:47:27.848Z,58.67
2023-02-06T07:49:55.773Z,58.01
2023-02-06T07:52:23.480Z,58.21
2023-02-06T07:54:51.197Z,58.78
2023-02-06T07:57:20.064Z,59.24
2023-02-06T07:59:48.915Z,58.66
2023-02-06T08:02:16.686Z,58.76
2023-02-06T08:04:44.650Z,58.21
2023-02-06T08:07:12.329Z,57.82
2023-02-06T08:09:40.445Z,57.40
2023-02-06T08:12:09.889Z,57.03
2023-02-06T08:14:38.554Z,56.83
2023-02-06T08:17:06.169Z,57.05
2023-02-06T08:19:34.369Z,57.44
2023-02-06T08:22:02.126Z,55.60
2023-02-06T08:24:38.931Z,54.96
2023-02-06T08:27:07.036Z,54.48
2023-02-06T08:32:18.445Z,54.33
2023-02-06T08:34:52.870Z,55.14
2023-02-06T08:37:20.913Z,54.21
2023-02-06T08:39:51.198Z,54.05
2023-02-06T08:42:19.384Z,54.28
2023-02-06T08:44:47.576Z,53.99
2023-02-06T08:47:16.314Z,52.87
2023-02-06T08:49:44.628Z,53.62
2023-02-06T08:52:12.325Z,53.46
2023-02-06T08:54:40.244Z,52.98
2023-02-06T08:57:09.965Z,53.12
2023-02-06T08:59:37.786Z,53.41
2023-02-06T09:02:08.287Z,53.27
2023-02-06T09:04:36.207Z,53.12
2023-02-06T09:07:03.929Z,52.33
2023-02-06T09:09:35.217Z,51.60
2023-02-06T09:12:03.308Z,51.77
2023-02-06T09:14:31.473Z,51.84
2023-02-06T09:16:59.915Z,51.33
2023-02-06T09:19:27.845Z,51.14
2023-02-06T09:21:55.495Z,51.99
2023-02-06T09:24:23.594Z,52.24
2023-02-06T09:26:59.902Z,50.73
2023-02-06T09:29:30.041Z,50.22
2023-02-06T09:31:58.330Z,50.14
2023-02-06T09:34:26.827Z,50.24
2023-02-06T09:36:56.098Z,49.86
2023-02-06T09:39:24.748Z,50.04
2023-02-06T09:42:03.457Z,49.30
2023-02-06T09:44:39.093Z,49.52
2023-02-06T09:47:22.182Z,49.04
2023-02-06T09:49:53.838Z,48.72
2023-02-06T09:52:43.936Z,48.66
2023-02-06T09:55:43.940Z,48.40
2023-02-06T09:58:18.037Z,48.41
2023-02-06T10:00:51.779Z,48.19
2023-02-06T10:03:58.836Z,46.98
2023-02-06T10:06:48.955Z,47.14
2023-02-06T10:09:27.174Z,47.73
2023-02-06T10:11:59.411Z,45.85
2023-02-06T10:14:39.349Z,47.06
2023-02-06T10:17:36.075Z,46.62
2023-02-06T10:20:12.045Z,46.10
2023-02-06T10:23:29.832Z,45.81
2023-02-06T10:26:03.434Z,44.81
2023-02-06T10:28:32.389Z,44.56
2023-02-06T10:31:24.738Z,45.44
2023-02-06T10:33:52.458Z,45.21
2023-02-06T10:36:35.605Z,44.46
2023-02-06T10:39:12.116Z,43.83
2023-02-06T10:41:54.240Z,42.65
2023-02-06T10:44:27.314Z,43.14
2023-02-06T10:46:56.195Z,42.70
2023-02-06T10:49:37.579Z,43.07
2023-02-06T10:52:31.162Z,42.95
2023-02-06T10:55:05.385Z,43.27
2023-02-06T10:57:33.922Z,42.17
2023-02-06T11:00:04.584Z,41.79
2023-02-06T11:02:38.842Z,42.02
2023-02-06T11:05:10.807Z,40.82
2023-02-06T11:08:22.065Z,40.20
2023-02-06T11:10:50.860Z,42.24
2023-02-06T11:13:49.079Z,41.36
2023-02-06T11:16:23.693Z,39.90
2023-02-06T11:18:52.615Z,39.19
2023-02-06T11:21:42.434Z,40.50
2023-02-06T11:24:15.433Z,38.56
2023-02-06T11:26:47.978Z,39.60
2023-02-06T11:29:22.070Z,39.12
2023-02-06T11:32:01.545Z,38.23
2023-02-06T11:34:36.166Z,39.42
2023-02-06T11:37:06.941Z,40.01
2023-02-06T11:39:37.112Z,40.75
2023-02-06T11:42:25.409Z,39.23
2023-02-06T11:44:53.142Z,40.07
2023-02-06T11:47:37.765Z,39.43
2023-02-06T11:50:14.924Z,40.81
2023-02-06T11:52:46.905Z,41.12
2023-02-06T11:55:23.417Z,39.41
2023-02-06T11:58:20.419Z,39.70
2023-02-06T12:00:54.063Z,37.66
2023-02-06T12:03:36.155Z,36.63
2023-02-06T12:06:28.570Z,38.48
2023-02-06T12:08:59.452Z,38.10
2023-02-06T12:11:29.877Z,39.42
2023-02-06T12:14:32.410Z,39.06
2023-02-06T12:17:00.621Z,38.28
2023-02-06T12:19:45.424Z,38.23
2023-02-06T12:22:21.306Z,38.64
2023-02-06T12:24:52.132Z,38.28
2023-02-06T12:27:27.988Z,38.53
2023-02-06T12:30:03.878Z,37.06
2023-02-06T12:32:36.896Z,35.90
2023-02-06T12:35:26.769Z,36.84
2023-02-06T12:37:59.668Z,37.03
2023-02-06T12:40:47.719Z,36.30
2023-02-06T12:43:17.002Z,35.83
2023-02-06T12:46:05.750Z,36.41
2023-02-06T12:48:41.796Z,35.93
2023-02-06T12:51:53.479Z,34.99
2023-02-06T12:54:21.271Z,35.66
2023-02-06T12:56:52.626Z,34.97
2023-02-06T12:59:52.142Z,34.43
2023-02-06T13:02:43.676Z,34.72
2023-02-06T13:05:41.276Z,34.06
2023-02-06T13:08:12.711Z,33.43
2023-02-06T13:10:41.015Z,34.02
2023-02-06T13:13:45.037Z,31.81
2023-02-06T13:16:13.357Z,33.00
2023-02-06T13:18:41.357Z,32.11
2023-02-06T13:21:14.633Z,33.24
2023-02-06T13:24:02.710Z,33.57
2023-02-06T13:26:45.676Z,33.26
2023-02-06T13:29:22.952Z,33.90
2023-02-06T13:32:10.728Z,33.78
2023-02-06T13:34:44.092Z,35.61
2023-02-06T13:37:34.619Z,36.01
2023-02-06T13:40:25.699Z,37.02
2023-02-06T13:43:08.364Z,35.87
2023-02-06T13:45:44.882Z,36.28
2023-02-06T13:48:36.413Z,34.46
2023-02-06T13:51:23.174Z,31.91
2023-02-06T13:54:15.368Z,34.16
2023-02-06T13:57:15.792Z,35.83
2023-02-06T13:59:48.602Z,35.00
2023-02-06T14:02:26.468Z,36.97
2023-02-06T14:04:55.120Z,37.07
2023-02-06T14:07:35.008Z,37.05
2023-02-06T14:10:33.871Z,37.72
2023-02-06T14:13:10.870Z,37.39
2023-02-06T14:15:54.152Z,37.80
2023-02-06T14:19:03.432Z,37.80
2023-02-06T14:21:34.637Z,37.07
2023-02-06T14:24:31.296Z,38.89
2023-02-06T14:27:04.865Z,38.88
2023-02-06T14:30:09.889Z,39.55
2023-02-06T14:32:54.883Z,40.42
2023-02-06T14:35:53.429Z,40.72
2023-02-06T14:38:33.178Z,41.20
2023-02-06T14:41:01.101Z,40.73
2023-02-06T14:43:35.181Z,41.35
2023-02-06T14:46:13.614Z,41.75
2023-02-06T14:48:51.372Z,41.68
2023-02-06T14:51:39.325Z,41.55
2023-02-06T14:54:26.516Z,41.35
2023-02-06T14:56:59.788Z,42.26
2023-02-06T14:59:29.214Z,43.57
2023-02-06T15:01:58.735Z,43.28
2023-02-06T15:04:30.548Z,43.93
2023-02-06T15:07:03.457Z,43.24
2023-02-06T15:09:36.717Z,43.00
2023-02-06T15:12:18.224Z,43.15
2023-02-06T15:14:55.188Z,43.82
2023-02-06T15:17:25.444Z,44.43
2023-02-06T15:19:57.300Z,44.63
2023-02-06T15:22:30.207Z,43.81
2023-02-06T15:25:25.869Z,44.35
2023-02-06T15:28:03.601Z,45.84
2023-02-06T15:30:32.600Z,45.60
2023-02-06T15:33:01.012Z,45.54
2023-02-06T15:35:31.070Z,46.15
2023-02-06T15:38:13.698Z,46.51
2023-02-06T15:40:45.451Z,47.07
2023-02-06T15:43:18.430Z,47.76
2023-02-06T15:45:48.381Z,48.17
2023-02-06T15:48:34.742Z,48.67
2023-02-06T15:51:24.194Z,48.84
2023-02-06T15:54:05.576Z,49.41
2023-02-06T15:56:35.009Z,48.82
2023-02-06T15:59:06.394Z,48.87
2023-02-06T16:01:37.353Z,49.40
2023-02-06T16:04:09.347Z,49.87
2023-02-06T16:06:37.025Z,50.39
2023-02-06T16:09:05.523Z,50.98
2023-02-06T16:11:36.294Z,50.88
2023-02-06T16:14:04.109Z,51.32
2023-02-06T16:16:34.631Z,51.06
2023-02-06T16:19:29.519Z,50.99
2023-02-06T16:22:18.393Z,51.40
2023-02-06T16:24:48.829Z,51.67
2023-02-06T16:27:20.246Z,52.51
2023-02-06T16:29:55.275Z,52.81
2023-02-06T16:32:31.027Z,53.28
2023-02-06T16:34:58.722Z,53.56
2023-02-06T16:37:28.573Z,54.46
2023-02-06T16:39:56.519Z,54.81
2023-02-06T16:42:26.452Z,55.20
2023-02-06T16:44:59.351Z,54.50
2023-02-06T16:47:27.852Z,54.39
2023-02-06T16:49:56.301Z,54.06
2023-02-06T16:52:30.170Z,53.87
2023-02-06T16:54:59.129Z,53.70
2023-02-06T16:57:37.658Z,54.25
2023-02-06T17:00:19.323Z,54.01
2023-02-06T17:02:47.961Z,53.75
2023-02-06T17:05:15.944Z,53.82
2023-02-06T17:07:43.796Z,53.87
2023-02-06T17:10:13.217Z,53.42
2023-02-06T17:12:41.236Z,53.66
2023-02-06T17:15:10.252Z,53.75
2023-02-06T17:17:38.216Z,53.58
2023-02-06T17:20:08.051Z,53.82
2023-02-06T17:22:35.926Z,54.02
2023-02-06T17:25:03.681Z,53.95
2023-02-06T17:27:32.016Z,53.96
2023-02-06T17:30:01.586Z,54.24
2023-02-06T17:32:30.308Z,54.36
2023-02-06T17:34:58.940Z,53.95
2023-02-06T17:37:26.646Z,54.77
2023-02-06T17:39:54.539Z,54.46
2023-02-06T17:42:22.580Z,54.04
2023-02-06T17:44:50.276Z,54.65
2023-02-06T17:47:19.935Z,54.69
2023-02-06T17:49:52.202Z,54.32
2023-02-06T17:52:19.978Z,54.62
2023-02-06T17:54:48.138Z,54.09
2023-02-06T17:57:16.036Z,54.32
2023-02-06T17:59:44.735Z,54.50
2023-02-06T18:02:13.307Z,54.35
2023-02-06T18:04:41.393Z,54.09
2023-02-06T18:07:09.096Z,54.74
2023-02-06T18:09:41.091Z,54.97
2023-02-06T18:12:12.619Z,55.29
2023-02-06T18:14:40.561Z,55.91
2023-02-06T18:17:10.116Z,55.11
2023-02-06T18:19:38.443Z,54.77
2023-02-06T18:22:06.392Z,55.04
2023-02-06T18:24:34.537Z,54.91
2023-02-06T18:27:02.739Z,55.04
2023-02-06T18:29:43.789Z,55.69
2023-02-06T18:32:18.870Z,55.96
2023-02-06T18:34:46.794Z,56.43
2023-02-06T18:37:18.550Z,56.38
2023-02-06T18:39:48.207Z,56.00
2023-02-06T18:42:15.953Z,56.48
2023-02-06T18:44:43.890Z,57.34
2023-02-06T18:47:15.187Z,57.96
2023-02-06T18:49:43.877Z,58.34
2023-02-06T18:52:11.721Z,58.39
2023-02-06T18:54:39.880Z,58.39
2023-02-06T18:57:07.927Z,58.46
2023-02-06T18:59:35.963Z,57.92
2023-02-06T19:02:04.466Z,58.82
2023-02-06T19:04:35.287Z,59.65
2023-02-06T19:07:03.257Z,60.19
2023-02-06T19:09:31.488Z,60.42
2023-02-06T19:11:59.581Z,59.85
2023-02-06T19:14:27.367Z,59.39
2023-02-06T19:16:55.515Z,59.64
2023-02-06T19:19:23.377Z,59.53
2023-02-06T19:21:52.309Z,59.74
2023-02-06T19:24:20.785Z,60.56
2023-02-06T19:26:48.423Z,60.15
2023-02-06T19:29:26.816Z,59.96
2023-02-06T19:32:07.293Z,60.35
2023-02-06T19:34:37.232Z,61.15
2023-02-06T19:37:07.333Z,59.91
2023-02-06T19:39:36.093Z,59.27
2023-02-06T19:42:06.630Z,59.81
2023-02-06T19:44:35.624Z,59.88
2023-02-06T19:47:03.860Z,60.01
2023-02-06T19:49:31.529Z,60.87
2023-02-06T19:51:59.904Z,60.39
2023-02-06T19:54:28.360Z,59.29
2023-02-06T19:56:56.581Z,59.76
2023-02-06T19:59:27.690Z,59.93
2023-02-06T20:01:58.548Z,60.90
2023-02-06T20:04:35.269Z,59.92
2023-02-06T20:07:03.302Z,59.18
2023-02-06T20:09:31.842Z,60.19
2023-02-06T20:12:02.378Z,60.54
2023-02-06T20:14:30.587Z,60.45
2023-02-06T20:16:58.754Z,61.19
2023-02-06T20:19:28.984Z,61.12
2023-02-06T20:21:59.873Z,61.69
2023-02-06T20:24:31.319Z,61.56
2023-02-06T20:27:03.685Z,61.90
2023-02-06T20:29:37.605Z,60.80
2023-02-06T20:32:06.817Z,61.54
2023-02-06T20:34:35.712Z,60.72
2023-02-06T20:37:04.539Z,61.77
2023-02-06T20:39:33.122Z,61.42
2023-02-06T20:42:01.742Z,62.09
2023-02-06T20:44:29.827Z,62.16
2023-02-06T20:46:58.108Z,61.30
2023-02-06T20:49:27.528Z,61.50
2023-02-06T20:51:56.029Z,61.95
2023-02-06T20:54:24.280Z,62.46
2023-02-06T20:56:52.572Z,62.13
2023-02-06T20:59:20.602Z,61.80
2023-02-06T21:01:48.442Z,61.87
2023-02-06T21:04:17.971Z,62.35
2023-02-06T21:06:46.111Z,61.64
2023-02-06T21:09:14.635Z,61.32
2023-02-06T21:11:47.253Z,61.19
2023-02-06T21:14:16.261Z,62.03
2023-02-06T21:16:44.725Z,61.96
2023-02-06T21:19:14.178Z,61.79
2023-02-06T21:21:43.696Z,62.13
2023-02-06T21:24:13.608Z,61.76
2023-02-06T21:26:41.304Z,61.92
2023-02-06T21:29:10.839Z,62.11
2023-02-06T21:31:39.317Z,61.42
2023-02-06T21:34:14.710Z,61.73
2023-02-06T21:36:42.924Z,62.10
2023-02-06T21:39:15.208Z,62.00
2023-02-06T21:41:43.916Z,62.21
2023-02-06T21:44:11.576Z,62.17
2023-02-06T21:46:39.359Z,62.28
2023-02-06T21:49:07.426Z,62.17
2023-02-06T21:51:35.361Z,62.30
2023-02-06T21:54:03.420Z,62.09
2023-02-06T21:56:32.010Z,62.70
2023-02-06T21:58:59.901Z,62.69
2023-02-06T22:01:30.373Z,62.55
2023-02-06T22:03:58.261Z,62.63
2023-02-06T22:06:26.608Z,62.75
2023-02-06T22:08:55.384Z,63.31
2023-02-06T22:11:28.655Z,63.63
2023-02-06T22:14:02.446Z,63.25
2023-02-06T22:16:30.905Z,62.87
2023-02-06T22:18:59.002Z,62.81
2023-02-06T22:21:28.392Z,62.17
2023-02-06T22:24:02.138Z,62.72
2023-02-06T22:26:30.311Z,63.88
2023-02-06T22:28:59.231Z,64.38
2023-02-06T22:31:30.149Z,64.49
2023-02-06T22:33:59.356Z,64.46
2023-02-06T22:36:29.177Z,64.35
2023-02-06T22:39:03.277Z,63.86
2023-02-06T22:41:32.474Z,63.91
2023-02-06T22:44:00.460Z,63.20
2023-02-06T22:46:34.106Z,63.39
2023-02-06T22:49:02.578Z,63.69
2023-02-06T22:51:30.451Z,64.13
2023-02-06T22:53:58.387Z,64.96
2023-02-06T22:56:29.177Z,65.07
2023-02-06T22:59:00.915Z,65.35
2023-02-06T23:01:32.326Z,65.15
2023-02-06T23:04:00.549Z,65.69
2023-02-06T23:06:29.315Z,65.66
2023-02-06T23:08:58.218Z,65.92
2023-02-06T23:11:26.473Z,66.09
2023-02-06T23:13:58.385Z,65.68
2023-02-06T23:16:27.662Z,65.82
2023-02-06T23:18:55.421Z,65.80
2023-02-06T23:21:25.391Z,66.42
2023-02-06T23:23:55.156Z,66.09
2023-02-06T23:26:23.424Z,66.10
2023-02-06T23:28:51.139Z,65.78
2023-02-06T23:31:21.271Z,66.01
2023-02-06T23:33:49.106Z,66.31
2023-02-06T23:36:18.591Z,65.64
2023-02-06T23:38:46.922Z,65.89
2023-02-06T23:41:17.635Z,66.03
2023-02-06T23:43:59.222Z,66.09
2023-02-06T23:46:27.651Z,67.06
2023-02-06T23:48:56.041Z,66.66
2023-02-06T23:51:24.343Z,66.57
2023-02-06T23:53:52.744Z,66.69
2023-02-06T23:56:26.423Z,66.48
2023-02-06T23:58:55.925Z,66.46
